Time;durP1;ratioP1;P1;durP2;ratioP2;P2;SDS_P1;SDS_P2;PMS_P1;PMS_P2;Temp;Humidity;BMP_temperature;BMP_pressure;BME280_temperature;BME280_humidity;BME280_pressure;Samples;Min_cycle;Max_cycle;Signal;HPM_P1;HPM_P2
2023/06/11 00:02:00;;;;;;;;;;;;;;;12.80;100.00;96848.56;110326;1242;68469;-73
2023/06/11 00:04:34;;;;;;;;;;;;;;;12.79;100.00;96847.47;110183;1242;59699;-72
2023/06/11 00:07:05;;;;;;;;;;;;;;;12.76;100.00;96846.31;110311;1241;59687;-71
2023/06/11 00:09:35;;;;;;;;;;;;;;;12.74;100.00;96847.50;110308;1241;71389;-72
2023/06/11 00:12:06;;;;;;;;;;;;;;;12.72;100.00;96849.94;110303;1242;68740;-72
2023/06/11 00:14:37;;;;;;;;;;;;;;;12.70;100.00;96852.64;110280;1245;69298;-71
2023/06/11 00:17:07;;;;;;;;;;;;;;;12.67;100.00;96854.67;110186;1242;59706;-73
2023/06/11 00:19:40;;;;;;;;;;;;;;;12.63;100.00;96858.11;110410;1241;59729;-72
2023/06/11 00:22:11;;;;;;;;;;;;;;;12.60;100.00;96861.75;110335;1242;70693;-71
2023/06/11 00:24:41;;;;;;;;;;;;;;;12.56;100.00;96862.61;110292;1241;68634;-71
2023/06/11 00:27:12;;;;;;;;;;;;;;;12.52;100.00;96857.61;110319;1245;69281;-72
2023/06/11 00:29:41;;;;;;;;;;;;;;;12.46;100.00;96858.92;110253;1243;59708;-72
2023/06/11 00:32:12;;;;;;;;;;;;;;;12.41;100.00;96857.82;110359;1241;59763;-72
2023/06/11 00:34:42;;;;;;;;;;;;;;;12.36;100.00;96858.27;110296;1241;71373;-72
2023/06/11 00:37:11;;;;;;;;;;;;;;;12.32;100.00;96858.50;110264;1241;68731;-72
2023/06/11 00:39:41;;;;;;;;;;;;;;;12.28;100.00;96859.05;110231;1241;68322;-72
2023/06/11 00:42:12;;;;;;;;;;;;;;;12.25;100.00;96858.23;110271;1243;59703;-72
2023/06/11 00:44:44;;;;;;;;;;;;;;;12.22;100.00;96865.42;110282;1242;59688;-72
2023/06/11 00:47:15;;;;;;;;;;;;;;;12.20;100.00;96865.15;110268;1241;71384;-72
2023/06/11 00:49:47;;;;;;;;;;;;;;;12.15;100.00;96865.52;110283;1242;69145;-71
2023/06/11 00:52:18;;;;;;;;;;;;;;;12.14;100.00;96868.05;110139;1242;68327;-72
2023/06/11 00:54:47;;;;;;;;;;;;;;;12.14;100.00;96869.84;110251;1242;59699;-72
2023/06/11 00:57:17;;;;;;;;;;;;;;;12.12;100.00;96871.73;110246;1240;59700;-72
2023/06/11 00:59:48;;;;;;;;;;;;;;;12.12;100.00;96872.29;110267;1241;70642;-72
2023/06/11 01:02:21;;;;;;;;;;;;;;;12.13;100.00;96870.31;110288;1241;68505;-71
2023/06/11 01:04:56;;;;;;;;;;;;;;;12.11;100.00;96870.42;110208;1241;68487;-72
2023/06/11 01:07:30;;;;;;;;;;;;;;;12.11;100.00;96870.64;110164;1242;59703;-72
2023/06/11 01:10:03;;;;;;;;;;;;;;;12.12;100.00;96869.00;110262;1244;60143;-72
2023/06/11 01:12:36;;;;;;;;;;;;;;;12.12;100.00;96866.70;110257;1242;71008;-70
2023/06/11 01:15:09;;;;;;;;;;;;;;;12.13;100.00;96866.23;110264;1242;68474;-71
2023/06/11 01:18:02;;;;;;;;;;;;;;;12.13;100.00;96866.48;110193;1242;68518;-72
2023/06/11 01:20:42;;;;;;;;;;;;;;;12.11;100.00;96866.61;110169;1241;59716;-71
2023/06/11 01:23:17;;;;;;;;;;;;;;;12.13;100.00;96866.27;110204;1241;59782;-73
2023/06/11 01:25:59;;;;;;;;;;;;;;;12.15;100.00;96863.79;109989;1246;71758;-71
2023/06/11 01:28:31;;;;;;;;;;;;;;;12.17;100.00;96866.77;110152;1245;69156;-72
2023/06/11 01:31:05;;;;;;;;;;;;;;;12.16;100.00;96861.66;110252;1243;69151;-72
2023/06/11 01:33:35;;;;;;;;;;;;;;;12.16;100.00;96865.31;110059;1241;59757;-72
2023/06/11 01:36:10;;;;;;;;;;;;;;;12.14;100.00;96868.41;110264;1242;59696;-72
2023/06/11 01:38:44;;;;;;;;;;;;;;;12.12;100.00;96868.23;110282;1242;70725;-72
2023/06/11 01:41:42;;;;;;;;;;;;;;;12.10;100.00;96867.19;110149;1245;69062;-70
2023/06/11 01:44:20;;;;;;;;;;;;;;;12.08;100.00;96866.23;110121;1241;69265;-71
2023/06/11 01:46:50;;;;;;;;;;;;;;;12.04;100.00;96862.33;110150;1242;59822;-73
2023/06/11 01:49:20;;;;;;;;;;;;;;;12.00;100.00;96863.03;110258;1242;59630;-71
2023/06/11 01:51:52;;;;;;;;;;;;;;;11.98;100.00;96862.89;110139;1242;71391;-71
2023/06/11 01:54:31;;;;;;;;;;;;;;;11.96;100.00;96864.90;110213;1245;68574;-70
2023/06/11 01:57:06;;;;;;;;;;;;;;;11.97;100.00;96865.89;110142;1242;67470;-73
2023/06/11 01:59:46;;;;;;;;;;;;;;;11.96;100.00;96865.64;110118;1240;59725;-73
2023/06/11 02:02:16;;;;;;;;;;;;;;;11.94;100.00;96862.33;110292;1244;59691;-71
2023/06/11 02:04:51;;;;;;;;;;;;;;;11.93;100.00;96865.91;110128;1241;71735;-71
2023/06/11 02:07:27;;;;;;;;;;;;;;;11.91;100.00;96863.65;110150;1240;68491;-71
2023/06/11 02:10:05;;;;;;;;;;;;;;;11.88;100.00;96863.02;110144;1243;68362;-71
2023/06/11 02:12:36;;;;;;;;;;;;;;;11.83;100.00;96865.20;110163;1242;59698;-71
2023/06/11 02:15:07;;;;;;;;;;;;;;;11.78;100.00;96865.30;110146;1241;59816;-71
2023/06/11 02:17:40;;;;;;;;;;;;;;;11.74;100.00;96864.73;110150;1242;71370;-71
2023/06/11 02:20:15;;;;;;;;;;;;;;;11.72;100.00;96869.70;110286;1242;69231;-71
2023/06/11 02:22:49;;;;;;;;;;;;;;;11.70;100.00;96869.38;110138;1243;69088;-72
2023/06/11 02:25:22;;;;;;;;;;;;;;;11.70;100.00;96870.15;110224;1242;59757;-70
2023/06/11 02:27:57;;;;;;;;;;;;;;;11.67;100.00;96872.97;110163;1245;59762;-73
2023/06/11 02:30:30;;;;;;;;;;;;;;;11.66;100.00;96871.73;110226;1244;71610;-71
2023/06/11 02:33:03;;;;;;;;;;;;;;;11.63;100.00;96876.34;110180;1245;69106;-72
2023/06/11 02:35:40;;;;;;;;;;;;;;;11.59;100.00;96880.45;110248;1240;69157;-72
2023/06/11 02:38:12;;;;;;;;;;;;;;;11.58;100.00;96882.70;110232;1243;59740;-72
2023/06/11 02:40:47;;;;;;;;;;;;;;;11.57;100.00;96884.52;110280;1241;59719;-71
2023/06/11 02:43:20;;;;;;;;;;;;;;;11.55;100.00;96886.08;110122;1244;72060;-71
2023/06/11 02:45:53;;;;;;;;;;;;;;;11.53;100.00;96887.67;110103;1241;69120;-71
2023/06/11 02:48:24;;;;;;;;;;;;;;;11.49;100.00;96890.27;110222;1245;68565;-71
2023/06/11 02:50:53;;;;;;;;;;;;;;;11.46;100.00;96893.45;110072;1244;59722;-71
2023/06/11 02:53:25;;;;;;;;;;;;;;;11.46;100.00;96892.94;110155;1241;59702;-71
2023/06/11 02:55:58;;;;;;;;;;;;;;;11.45;100.00;96888.50;110144;1245;71276;-71
2023/06/11 02:58:31;;;;;;;;;;;;;;;11.46;100.00;96887.38;110147;1241;68392;-71
2023/06/11 03:01:04;;;;;;;;;;;;;;;11.46;100.00;96886.61;109800;1241;68709;-71
2023/06/11 03:03:35;;;;;;;;;;;;;;;11.49;100.00;96885.91;110115;1244;59736;-71
2023/06/11 03:06:09;;;;;;;;;;;;;;;11.50;100.00;96889.11;110132;1244;59706;-73
2023/06/11 03:08:39;;;;;;;;;;;;;;;11.52;100.00;96890.38;110138;1243;71511;-71
2023/06/11 03:11:08;;;;;;;;;;;;;;;11.55;100.00;96890.46;110052;1241;69870;-70
2023/06/11 03:13:40;;;;;;;;;;;;;;;11.57;100.00;96895.30;110220;1244;68123;-71
2023/06/11 03:16:10;;;;;;;;;;;;;;;11.61;100.00;96892.77;110261;1242;59744;-71
2023/06/11 03:18:43;;;;;;;;;;;;;;;11.63;100.00;96891.16;110294;1241;59762;-71
2023/06/11 03:21:15;;;;;;;;;;;;;;;11.67;100.00;96893.45;110288;1244;71231;-70
2023/06/11 03:23:47;;;;;;;;;;;;;;;11.72;100.00;96894.24;110165;1241;68589;-71
2023/06/11 03:26:21;;;;;;;;;;;;;;;11.77;100.00;96897.64;110278;1245;68330;-71
2023/06/11 03:28:53;;;;;;;;;;;;;;;11.82;100.00;96895.65;110135;1241;59745;-71
2023/06/11 03:31:23;;;;;;;;;;;;;;;11.87;100.00;96897.90;110278;1245;59646;-71
2023/06/11 03:33:54;;;;;;;;;;;;;;;11.92;100.00;96896.04;110254;1244;70661;-71
2023/06/11 03:36:24;;;;;;;;;;;;;;;11.98;100.00;96897.07;110335;1241;69267;-71
2023/06/11 03:38:54;;;;;;;;;;;;;;;12.05;100.00;96901.15;110261;1242;68508;-72
2023/06/11 03:41:23;;;;;;;;;;;;;;;12.14;100.00;96903.86;110213;1244;59796;-71
2023/06/11 03:43:52;;;;;;;;;;;;;;;12.23;100.00;96904.18;110235;1243;59681;-70
2023/06/11 03:46:24;;;;;;;;;;;;;;;12.32;100.00;96905.45;110117;1245;71500;-71
2023/06/11 03:48:54;;;;;;;;;;;;;;;12.41;100.00;96906.92;110114;1241;69222;-71
2023/06/11 03:51:23;;;;;;;;;;;;;;;12.52;100.00;96907.91;110118;1241;69583;-72
2023/06/11 03:53:53;;;;;;;;;;;;;;;12.63;100.00;96906.24;110138;1243;59667;-73
2023/06/11 03:56:23;;;;;;;;;;;;;;;12.75;100.00;96907.77;110185;1241;59748;-71
2023/06/11 03:58:52;;;;;;;;;;;;;;;12.88;100.00;96904.16;110292;1240;71414;-71
2023/06/11 04:01:22;;;;;;;;;;;;;;;12.98;100.00;96906.95;110117;1245;69161;-71
2023/06/11 04:03:50;;;;;;;;;;;;;;;13.07;100.00;96909.09;110217;1243;69287;-71
2023/06/11 04:06:20;;;;;;;;;;;;;;;13.15;100.00;96910.24;110257;1242;59667;-72
2023/06/11 04:08:50;;;;;;;;;;;;;;;13.23;100.00;96910.93;110182;1241;59693;-72
2023/06/11 04:11:20;;;;;;;;;;;;;;;13.32;100.00;96908.77;110315;1242;71413;-72
2023/06/11 04:13:51;;;;;;;;;;;;;;;13.41;100.00;96911.45;110130;1242;69257;-73
2023/06/11 04:16:20;;;;;;;;;;;;;;;13.50;100.00;96909.89;110253;1244;70222;-73
2023/06/11 04:18:50;;;;;;;;;;;;;;;13.59;100.00;96903.48;110279;1242;59725;-72
2023/06/11 04:21:19;;;;;;;;;;;;;;;13.70;100.00;96901.23;110311;1242;59696;-70
2023/06/11 04:23:49;;;;;;;;;;;;;;;13.82;100.00;96900.63;110141;1244;71686;-70
2023/06/11 04:26:23;;;;;;;;;;;;;;;13.95;100.00;96898.49;110165;1241;69261;-70
2023/06/11 04:28:56;;;;;;;;;;;;;;;14.10;100.00;96900.76;110152;1242;69275;-71
2023/06/11 04:31:26;;;;;;;;;;;;;;;14.25;100.00;96898.46;110307;1244;59738;-72
2023/06/11 04:34:03;;;;;;;;;;;;;;;14.40;100.00;96895.11;110258;1244;59682;-71
2023/06/11 04:36:35;;;;;;;;;;;;;;;14.56;100.00;96897.45;110272;1241;69634;-72
2023/06/11 04:39:04;;;;;;;;;;;;;;;14.70;100.00;96903.92;110301;1241;68366;-72
2023/06/11 04:41:36;;;;;;;;;;;;;;;14.85;100.00;96902.14;110275;1244;69258;-73
2023/06/11 04:44:08;;;;;;;;;;;;;;;14.94;100.00;96904.79;110278;1243;59740;-72
2023/06/11 04:46:38;;;;;;;;;;;;;;;14.93;100.00;96906.60;110307;1243;59696;-71
2023/06/11 04:49:08;;;;;;;;;;;;;;;14.96;100.00;96907.88;110278;1242;70322;-70
2023/06/11 04:51:40;;;;;;;;;;;;;;;15.05;100.00;96908.91;110135;1243;69243;-72
2023/06/11 04:54:11;;;;;;;;;;;;;;;15.15;100.00;96913.57;110125;1250;69181;-70
2023/06/11 04:56:46;;;;;;;;;;;;;;;15.33;100.00;96920.75;110194;1242;59695;-71
2023/06/11 04:59:16;;;;;;;;;;;;;;;15.51;100.00;96919.95;110165;1242;59661;-71
2023/06/11 05:01:48;;;;;;;;;;;;;;;15.73;100.00;96917.92;110186;1242;70633;-71
2023/06/11 05:04:19;;;;;;;;;;;;;;;16.00;100.00;96914.61;109953;1244;69849;-72
2023/06/11 05:06:49;;;;;;;;;;;;;;;16.32;100.00;96917.32;110266;1241;67735;-71
2023/06/11 05:09:21;;;;;;;;;;;;;;;16.63;100.00;96916.53;110254;1243;59688;-72
2023/06/11 05:11:51;;;;;;;;;;;;;;;16.90;100.00;96915.49;110279;1242;59685;-73
2023/06/11 05:14:22;;;;;;;;;;;;;;;17.24;98.09;96917.80;110278;1241;70603;-72
2023/06/11 05:16:52;;;;;;;;;;;;;;;17.75;98.49;96914.76;110152;1242;69250;-71
2023/06/11 05:19:22;;;;;;;;;;;;;;;18.25;97.10;96917.52;110270;1240;68370;-71
2023/06/11 05:21:51;;;;;;;;;;;;;;;18.58;91.89;96921.05;110240;1244;59718;-72
2023/06/11 05:24:20;;;;;;;;;;;;;;;18.70;88.14;96925.85;110263;1242;60005;-71
2023/06/11 05:26:54;;;;;;;;;;;;;;;18.77;87.28;96926.31;110249;1242;71991;-73
2023/06/11 05:29:25;;;;;;;;;;;;;;;18.62;87.31;96928.23;110063;1241;69251;-70
2023/06/11 05:31:56;;;;;;;;;;;;;;;18.58;88.22;96929.27;110149;1241;68517;-72
2023/06/11 05:34:26;;;;;;;;;;;;;;;18.66;88.72;96926.92;110307;1241;60198;-71
2023/06/11 05:36:58;;;;;;;;;;;;;;;18.51;87.27;96923.58;110288;1243;59690;-73
2023/06/11 05:39:27;;;;;;;;;;;;;;;18.42;88.85;96924.30;110107;1244;70541;-71
2023/06/11 05:41:56;;;;;;;;;;;;;;;18.47;89.56;96926.90;110154;1240;67921;-71
2023/06/11 05:44:25;;;;;;;;;;;;;;;18.53;89.65;96928.95;110329;1241;68556;-72
2023/06/11 05:46:53;;;;;;;;;;;;;;;18.58;88.55;96929.48;110413;1241;59746;-70
2023/06/11 05:49:23;;;;;;;;;;;;;;;18.64;87.44;96933.20;110285;1244;59678;-72
2023/06/11 05:51:52;;;;;;;;;;;;;;;18.79;87.71;96931.69;110304;1241;71343;-71
2023/06/11 05:54:21;;;;;;;;;;;;;;;19.02;87.97;96928.23;110260;1242;69241;-71
2023/06/11 05:56:51;;;;;;;;;;;;;;;19.27;88.43;96930.57;110238;1242;68614;-71
2023/06/11 05:59:20;;;;;;;;;;;;;;;19.53;87.32;96928.14;110049;1241;59678;-71
2023/06/11 06:01:48;;;;;;;;;;;;;;;19.58;84.97;96928.92;110243;1241;59654;-71
2023/06/11 06:04:19;;;;;;;;;;;;;;;19.65;84.86;96929.95;110274;1240;71825;-71
2023/06/11 06:06:48;;;;;;;;;;;;;;;19.74;84.29;96931.31;110268;1240;69227;-71
2023/06/11 06:09:17;;;;;;;;;;;;;;;19.77;83.75;96931.13;110123;1242;69252;-70
2023/06/11 06:11:47;;;;;;;;;;;;;;;19.69;83.46;96938.13;110261;1241;59705;-71
2023/06/11 06:14:16;;;;;;;;;;;;;;;19.66;82.18;96933.13;109958;1242;60114;-72
2023/06/11 06:16:45;;;;;;;;;;;;;;;19.61;83.37;96934.77;110297;1241;71414;-71
2023/06/11 06:19:17;;;;;;;;;;;;;;;19.78;84.45;96930.80;110320;1240;68769;-71
2023/06/11 06:21:46;;;;;;;;;;;;;;;19.74;82.34;96933.48;110228;1242;68573;-71
2023/06/11 06:24:15;;;;;;;;;;;;;;;19.81;82.25;96930.92;110214;1240;59737;-72
2023/06/11 06:26:45;;;;;;;;;;;;;;;19.75;82.41;96931.29;109929;1240;59668;-70
2023/06/11 06:29:14;;;;;;;;;;;;;;;20.03;81.50;96934.07;110198;1241;71448;-71
2023/06/11 06:31:43;;;;;;;;;;;;;;;20.54;80.01;96932.55;110264;1242;68945;-71
2023/06/11 06:34:12;;;;;;;;;;;;;;;21.17;78.55;96934.81;110271;1241;69380;-71
2023/06/11 06:36:41;;;;;;;;;;;;;;;21.83;74.14;96934.67;110197;1244;59741;-71
2023/06/11 06:39:10;;;;;;;;;;;;;;;22.27;72.84;96936.24;110251;1240;59728;-72
2023/06/11 06:41:39;;;;;;;;;;;;;;;22.57;71.44;96933.80;110668;1244;70953;-72
2023/06/11 06:44:12;;;;;;;;;;;;;;;22.94;69.20;96938.23;110689;1241;69136;-71
2023/06/11 06:46:43;;;;;;;;;;;;;;;23.18;67.64;96939.27;110274;1249;69180;-71
2023/06/11 06:49:11;;;;;;;;;;;;;;;23.05;66.72;96940.48;109915;1242;435717;-72
2023/06/11 06:51:40;;;;;;;;;;;;;;;23.00;66.39;96937.90;110273;1240;59749;-72
2023/06/11 06:54:08;;;;;;;;;;;;;;;23.28;66.15;96934.56;110295;1244;70234;-73
2023/06/11 06:56:37;;;;;;;;;;;;;;;23.72;65.95;96940.47;110317;1240;68564;-73
2023/06/11 06:59:06;;;;;;;;;;;;;;;23.93;64.15;96941.26;110304;1240;69298;-72
2023/06/11 07:01:35;;;;;;;;;;;;;;;23.97;60.24;96941.75;110282;1242;59741;-70
2023/06/11 07:04:04;;;;;;;;;;;;;;;23.63;61.43;96938.58;110128;1244;59725;-71
2023/06/11 07:06:33;;;;;;;;;;;;;;;23.74;62.22;96940.53;110278;1242;71271;-73
2023/06/11 07:09:03;;;;;;;;;;;;;;;23.81;60.42;96939.98;110260;1241;69288;-70
2023/06/11 07:11:33;;;;;;;;;;;;;;;23.93;61.28;96933.60;110283;1242;69250;-72
2023/06/11 07:14:02;;;;;;;;;;;;;;;24.27;60.46;96930.80;110289;1241;59804;-72
2023/06/11 07:16:32;;;;;;;;;;;;;;;24.63;60.07;96929.52;110289;1243;59740;-72
2023/06/11 07:19:04;;;;;;;;;;;;;;;25.27;56.97;96925.58;110283;1240;70633;-70
2023/06/11 07:21:35;;;;;;;;;;;;;;;25.62;57.00;96929.55;110237;1244;68479;-73
2023/06/11 07:24:05;;;;;;;;;;;;;;;25.60;55.17;96928.54;110237;1242;69253;-72
2023/06/11 07:26:34;;;;;;;;;;;;;;;25.62;54.49;96925.77;110291;1240;59772;-73
2023/06/11 07:29:03;;;;;;;;;;;;;;;25.84;54.28;96926.90;110119;1240;59706;-72
2023/06/11 07:31:32;;;;;;;;;;;;;;;26.06;55.09;96925.95;110295;1242;71143;-72
2023/06/11 07:34:02;;;;;;;;;;;;;;;26.25;53.27;96923.89;110270;1242;69077;-72
2023/06/11 07:36:31;;;;;;;;;;;;;;;26.59;53.53;96920.45;110238;1246;69283;-72
2023/06/11 07:39:00;;;;;;;;;;;;;;;26.59;52.30;96921.43;110277;1240;59691;-73
2023/06/11 07:41:28;;;;;;;;;;;;;;;26.52;52.79;96920.04;110154;1244;59756;-73
2023/06/11 07:43:58;;;;;;;;;;;;;;;26.25;52.42;96919.98;110273;1242;71874;-72
2023/06/11 07:46:27;;;;;;;;;;;;;;;26.48;52.75;96920.02;110286;1242;70103;-72
2023/06/11 07:48:56;;;;;;;;;;;;;;;26.83;52.67;96919.15;110083;1240;69291;-73
2023/06/11 07:51:25;;;;;;;;;;;;;;;27.05;50.11;96918.32;110249;1241;59746;-72
2023/06/11 07:54:00;;;;;;;;;;;;;;;27.25;50.03;96923.59;110257;1243;59734;-73
2023/06/11 07:56:28;;;;;;;;;;;;;;;27.38;50.41;96921.42;110344;1240;71400;-72
2023/06/11 07:58:57;;;;;;;;;;;;;;;27.38;49.03;96922.65;110171;1242;69256;-74
2023/06/11 08:01:26;;;;;;;;;;;;;;;27.31;49.20;96920.65;110281;1241;69134;-73
2023/06/11 08:03:54;;;;;;;;;;;;;;;27.40;48.87;96917.34;110244;1243;59787;-71
2023/06/11 08:06:24;;;;;;;;;;;;;;;27.27;49.18;96918.66;110303;1242;59644;-72
2023/06/11 08:08:52;;;;;;;;;;;;;;;27.26;47.05;96918.20;110286;1242;71994;-73
2023/06/11 08:11:21;;;;;;;;;;;;;;;26.88;50.74;96914.13;110282;1242;69227;-71
2023/06/11 08:13:49;;;;;;;;;;;;;;;26.80;50.64;96915.44;110264;1243;70058;-72
2023/06/11 08:16:18;;;;;;;;;;;;;;;26.65;49.17;96914.92;110257;1242;59663;-72
2023/06/11 08:18:47;;;;;;;;;;;;;;;26.65;49.53;96911.66;110275;1241;59734;-73
2023/06/11 08:21:16;;;;;;;;;;;;;;;26.66;50.26;96910.14;110267;1241;71623;-73
2023/06/11 08:23:45;;;;;;;;;;;;;;;26.86;50.40;96905.70;110132;1242;69836;-73
2023/06/11 08:26:14;;;;;;;;;;;;;;;27.18;49.94;96907.75;110294;1242;69195;-72
2023/06/11 08:28:43;;;;;;;;;;;;;;;27.82;49.22;96910.84;110244;1240;59725;-72
2023/06/11 08:31:12;;;;;;;;;;;;;;;28.41;46.69;96903.73;110276;1242;59756;-72
2023/06/11 08:33:41;;;;;;;;;;;;;;;28.92;47.28;96903.59;110280;1240;72375;-70
2023/06/11 08:36:09;;;;;;;;;;;;;;;29.08;45.41;96904.92;110246;1240;69763;-72
2023/06/11 08:38:38;;;;;;;;;;;;;;;28.81;45.09;96900.46;110108;1242;69863;-72
2023/06/11 08:41:07;;;;;;;;;;;;;;;28.65;43.75;96898.77;110312;1242;60199;-73
2023/06/11 08:43:37;;;;;;;;;;;;;;;28.63;42.84;96897.56;110225;1241;59706;-71
2023/06/11 08:46:12;;;;;;;;;;;;;;;28.72;43.10;96898.90;110242;1240;70971;-73
2023/06/11 08:48:44;;;;;;;;;;;;;;;29.20;43.17;96896.09;110248;1242;69310;-71
2023/06/11 08:51:13;;;;;;;;;;;;;;;29.46;42.84;96896.49;110278;1242;70065;-70
2023/06/11 08:53:42;;;;;;;;;;;;;;;29.69;43.01;96893.05;110277;1242;59761;-72
2023/06/11 08:56:11;;;;;;;;;;;;;;;29.92;41.84;96892.20;110271;1242;59695;-72
2023/06/11 08:58:40;;;;;;;;;;;;;;;30.11;41.94;96888.08;110377;1242;71286;-71
2023/06/11 09:01:09;;;;;;;;;;;;;;;30.40;39.61;96886.20;110305;1242;69164;-74
2023/06/11 09:03:38;;;;;;;;;;;;;;;30.29;38.85;96884.45;110258;1242;69889;-72
2023/06/11 09:06:07;;;;;;;;;;;;;;;30.17;40.13;96882.83;110256;1240;59763;-73
2023/06/11 09:08:36;;;;;;;;;;;;;;;30.49;39.36;96883.13;110296;1242;59695;-72
2023/06/11 09:11:05;;;;;;;;;;;;;;;30.66;39.80;96881.18;110268;1240;70533;-73
2023/06/11 09:13:34;;;;;;;;;;;;;;;30.64;39.33;96878.06;110255;1240;69089;-73
2023/06/11 09:16:02;;;;;;;;;;;;;;;30.63;39.88;96876.52;110258;1242;69145;-72
2023/06/11 09:18:31;;;;;;;;;;;;;;;30.84;38.62;96874.13;110238;1240;59692;-72
2023/06/11 09:21:00;;;;;;;;;;;;;;;30.62;38.01;96872.03;110289;1242;59673;-73
2023/06/11 09:23:30;;;;;;;;;;;;;;;30.90;36.58;96869.51;110234;1240;71170;-73
2023/06/11 09:26:00;;;;;;;;;;;;;;;30.82;36.61;96863.10;110286;1242;68730;-72
2023/06/11 09:28:30;;;;;;;;;;;;;;;30.12;37.79;96863.61;110210;1243;69097;-72
2023/06/11 09:30:59;;;;;;;;;;;;;;;29.89;38.37;96859.40;110268;1241;59664;-72
2023/06/11 09:33:31;;;;;;;;;;;;;;;30.41;37.24;96858.20;110276;1243;59694;-72
2023/06/11 09:36:00;;;;;;;;;;;;;;;30.71;37.87;96857.09;110321;1240;71285;-74
2023/06/11 09:38:32;;;;;;;;;;;;;;;30.93;36.63;96855.23;110124;1241;68426;-72
2023/06/11 09:41:03;;;;;;;;;;;;;;;30.76;37.10;96853.91;110313;1240;68535;-73
2023/06/11 09:43:33;;;;;;;;;;;;;;;30.53;38.10;96858.88;110308;1242;59605;-73
2023/06/11 09:46:02;;;;;;;;;;;;;;;30.67;38.30;96853.54;110246;1243;59622;-73
2023/06/11 09:48:31;;;;;;;;;;;;;;;31.10;37.36;96852.65;110306;1240;71974;-72
2023/06/11 09:51:02;;;;;;;;;;;;;;;31.51;36.83;96851.45;110286;1243;68434;-72
2023/06/11 09:53:31;;;;;;;;;;;;;;;31.12;37.03;96851.27;110277;1243;69277;-73
2023/06/11 09:56:03;;;;;;;;;;;;;;;31.23;36.42;96845.27;110301;1242;59725;-72
2023/06/11 09:58:40;;;;;;;;;;;;;;;31.28;35.79;96851.09;110305;1243;59642;-73
2023/06/11 10:01:11;;;;;;;;;;;;;;;31.40;35.99;96852.02;110481;1240;71358;-70
2023/06/11 10:03:40;;;;;;;;;;;;;;;31.13;34.54;96846.95;110656;1242;68503;-73
2023/06/11 10:06:19;;;;;;;;;;;;;;;30.95;36.73;96846.63;110614;1242;69262;-73
2023/06/11 10:08:49;;;;;;;;;;;;;;;30.74;37.00;96842.51;110288;1242;59725;-72
2023/06/11 10:11:20;;;;;;;;;;;;;;;30.79;37.38;96842.46;110289;1241;59721;-72
2023/06/11 10:13:57;;;;;;;;;;;;;;;30.94;36.55;96837.32;110242;1240;69718;-72
2023/06/11 10:16:26;;;;;;;;;;;;;;;30.94;36.24;96834.35;110309;1242;68236;-72
2023/06/11 10:19:09;;;;;;;;;;;;;;;30.82;35.57;96830.12;110269;1241;67560;-72
2023/06/11 10:21:49;;;;;;;;;;;;;;;30.86;35.70;96828.61;110244;1242;59683;-71
2023/06/11 10:24:26;;;;;;;;;;;;;;;30.63;35.88;96821.13;110279;1242;59689;-71
2023/06/11 10:27:05;;;;;;;;;;;;;;;30.75;36.72;96819.02;110309;1242;71378;-73
2023/06/11 10:29:41;;;;;;;;;;;;;;;30.67;35.41;96817.38;110290;1242;69361;-72
2023/06/11 10:32:28;;;;;;;;;;;;;;;30.60;37.53;96810.67;110287;1240;69904;-72
2023/06/11 10:34:57;;;;;;;;;;;;;;;30.72;36.88;96809.10;110247;1241;59715;-72
2023/06/11 10:37:30;;;;;;;;;;;;;;;30.53;37.77;96808.77;110305;1242;59676;-72
2023/06/11 10:39:59;;;;;;;;;;;;;;;30.82;36.90;96810.05;110291;1241;71979;-73
2023/06/11 10:42:35;;;;;;;;;;;;;;;30.73;37.51;96810.12;110309;1242;69782;-72
2023/06/11 10:45:08;;;;;;;;;;;;;;;30.62;38.16;96806.61;110286;1240;70203;-72
2023/06/11 10:47:44;;;;;;;;;;;;;;;30.57;37.86;96807.36;110296;1242;59678;-73
2023/06/11 10:50:14;;;;;;;;;;;;;;;31.03;37.25;96812.85;110271;1241;59677;-72
2023/06/11 10:52:47;;;;;;;;;;;;;;;31.24;36.26;96809.65;110294;1242;71708;-73
2023/06/11 10:55:17;;;;;;;;;;;;;;;31.53;35.97;96812.30;110254;1240;68486;-72
2023/06/11 10:57:46;;;;;;;;;;;;;;;31.32;36.13;96810.39;110242;1242;68568;-72
2023/06/11 11:00:15;;;;;;;;;;;;;;;30.86;36.14;96808.96;110279;1242;59738;-72
2023/06/11 11:02:44;;;;;;;;;;;;;;;30.92;36.15;96809.52;110271;1244;59638;-73
2023/06/11 11:05:13;;;;;;;;;;;;;;;31.03;35.16;96806.75;110794;1240;71372;-73
2023/06/11 11:07:45;;;;;;;;;;;;;;;31.29;35.18;96805.84;110565;1242;69272;-73
2023/06/11 11:10:19;;;;;;;;;;;;;;;31.31;35.88;96804.95;110319;1242;69849;-74
2023/06/11 11:12:48;;;;;;;;;;;;;;;31.59;34.37;96806.79;110230;1240;59732;-74
2023/06/11 11:15:17;;;;;;;;;;;;;;;31.88;34.16;96799.51;110261;1240;59774;-72
2023/06/11 11:17:46;;;;;;;;;;;;;;;31.95;32.11;96796.58;110291;1240;70648;-72
2023/06/11 11:20:22;;;;;;;;;;;;;;;31.85;33.22;96794.26;110282;1240;69246;-73
2023/06/11 11:22:52;;;;;;;;;;;;;;;32.00;32.62;96791.37;110266;1242;69257;-71
2023/06/11 11:25:22;;;;;;;;;;;;;;;32.43;33.31;96792.15;110176;1242;59742;-72
2023/06/11 11:27:50;;;;;;;;;;;;;;;32.54;32.81;96784.67;110336;1240;60212;-72
2023/06/11 11:30:19;;;;;;;;;;;;;;;32.57;32.31;96779.46;110278;1241;71816;-72
2023/06/11 11:32:48;;;;;;;;;;;;;;;32.64;33.47;96781.39;110265;1240;68574;-72
2023/06/11 11:35:18;;;;;;;;;;;;;;;32.75;33.40;96778.38;110283;1244;68533;-72
2023/06/11 11:37:50;;;;;;;;;;;;;;;32.76;33.60;96777.36;110262;1241;59751;-73
2023/06/11 11:40:19;;;;;;;;;;;;;;;32.34;33.48;96779.61;110262;1242;59682;-73
2023/06/11 11:42:48;;;;;;;;;;;;;;;31.45;35.10;96784.38;110257;1242;70650;-72
2023/06/11 11:45:18;;;;;;;;;;;;;;;31.15;36.48;96783.54;110267;1240;69742;-73
2023/06/11 11:47:51;;;;;;;;;;;;;;;30.73;36.82;96785.14;110278;1240;69218;-71
2023/06/11 11:50:22;;;;;;;;;;;;;;;30.23;37.20;96787.55;110296;1243;59737;-73
2023/06/11 11:53:02;;;;;;;;;;;;;;;29.52;37.39;96787.94;110311;1240;59757;-73
2023/06/11 11:55:39;;;;;;;;;;;;;;;28.22;38.92;96783.38;110292;1241;72330;-71
2023/06/11 11:58:12;;;;;;;;;;;;;;;27.37;41.14;96788.98;110254;1242;69074;-72
2023/06/11 12:00:47;;;;;;;;;;;;;;;26.76;42.89;96787.36;110264;1240;69409;-72
2023/06/11 12:03:22;;;;;;;;;;;;;;;26.34;43.57;96779.55;110294;1242;59712;-72
2023/06/11 12:05:55;;;;;;;;;;;;;;;25.96;44.95;96775.56;110270;1242;59740;-74
2023/06/11 12:08:25;;;;;;;;;;;;;;;25.77;45.04;96775.35;110269;1243;71517;-72
2023/06/11 12:10:54;;;;;;;;;;;;;;;25.42;46.93;96782.81;110297;1243;68516;-72
2023/06/11 12:13:22;;;;;;;;;;;;;;;25.40;47.04;96783.53;110258;1243;68549;-72
2023/06/11 12:15:51;;;;;;;;;;;;;;;25.35;47.41;96784.54;110268;1241;59675;-70
2023/06/11 12:18:20;;;;;;;;;;;;;;;25.18;47.63;96783.25;110165;1242;59690;-71
2023/06/11 12:20:48;;;;;;;;;;;;;;;25.06;47.98;96786.98;110170;1242;72016;-71
2023/06/11 12:23:18;;;;;;;;;;;;;;;25.05;48.12;96792.35;110307;1240;68365;-71
2023/06/11 12:25:47;;;;;;;;;;;;;;;25.02;48.23;96790.91;110221;1242;69879;-72
2023/06/11 12:28:17;;;;;;;;;;;;;;;25.08;46.83;96791.18;110290;1242;59679;-71
2023/06/11 12:30:45;;;;;;;;;;;;;;;25.00;46.61;96789.86;110267;1243;59694;-70
2023/06/11 12:33:15;;;;;;;;;;;;;;;24.86;47.08;96797.27;109958;1244;70462;-71
2023/06/11 12:35:44;;;;;;;;;;;;;;;24.89;46.42;96799.56;110319;1242;69836;-71
2023/06/11 12:38:15;;;;;;;;;;;;;;;24.88;44.98;96800.05;110300;1240;69704;-70
2023/06/11 12:40:43;;;;;;;;;;;;;;;24.94;44.24;96797.30;110249;1240;59744;-72
2023/06/11 12:43:12;;;;;;;;;;;;;;;24.96;44.36;96794.54;110288;1240;59706;-72
2023/06/11 12:45:40;;;;;;;;;;;;;;;25.07;44.92;96795.73;110238;1242;70663;-72
2023/06/11 12:48:09;;;;;;;;;;;;;;;25.12;45.33;96789.04;110151;1242;69829;-72
2023/06/11 12:50:38;;;;;;;;;;;;;;;25.15;44.92;96790.11;110285;1242;69812;-72
2023/06/11 12:53:07;;;;;;;;;;;;;;;25.15;45.53;96786.65;110244;1242;59684;-73